sensor_id;sensor_type;location;lat;lon;timestamp;P1;durP1;ratioP1;P2;durP2;ratioP2
31537;SDS011;18147;51.952;6.146;2023-06-19T00:02:09;15.23;;;10.57;;
31537;SDS011;18147;51.952;6.146;2023-06-19T00:04:35;16.05;;;10.30;;
31537;SDS011;18147;51.952;6.146;2023-06-19T00:07:00;13.32;;;10.75;;
31537;SDS011;18147;51.952;6.146;2023-06-19T00:09:26;14.00;;;9.32;;
31537;SDS011;18147;51.952;6.146;2023-06-19T00:11:52;13.73;;;10.25;;
31537;SDS011;18147;51.952;6.146;2023-06-19T00:14:17;16.02;;;10.05;;
31537;SDS011;18147;51.952;6.146;2023-06-19T00:16:43;15.25;;;10.15;;
31537;SDS011;18147;51.952;6.146;2023-06-19T00:19:10;11.75;;;9.77;;
31537;SDS011;18147;51.952;6.146;2023-06-19T00:21:37;11.13;;;9.85;;
31537;SDS011;18147;51.952;6.146;2023-06-19T00:24:08;14.73;;;10.02;;
31537;SDS011;18147;51.952;6.146;2023-06-19T00:26:37;17.27;;;10.05;;
31537;SDS011;18147;51.952;6.146;2023-06-19T00:29:06;12.50;;;9.73;;
31537;SDS011;18147;51.952;6.146;2023-06-19T00:31:32;13.13;;;9.20;;
31537;SDS011;18147;51.952;6.146;2023-06-19T00:33:58;10.88;;;9.38;;
31537;SDS011;18147;51.952;6.146;2023-06-19T00:36:24;12.18;;;8.25;;
31537;SDS011;18147;51.952;6.146;2023-06-19T00:38:51;15.65;;;9.18;;
31537;SDS011;18147;51.952;6.146;2023-06-19T00:41:17;12.50;;;8.95;;
31537;SDS011;18147;51.952;6.146;2023-06-19T00:43:43;11.18;;;8.25;;
31537;SDS011;18147;51.952;6.146;2023-06-19T00:46:10;13.68;;;8.25;;
31537;SDS011;18147;51.952;6.146;2023-06-19T00:48:37;14.60;;;8.57;;
31537;SDS011;18147;51.952;6.146;2023-06-19T00:51:06;11.73;;;8.63;;
31537;SDS011;18147;51.952;6.146;2023-06-19T00:53:32;10.27;;;8.27;;
31537;SDS011;18147;51.952;6.146;2023-06-19T00:55:59;12.82;;;8.88;;
31537;SDS011;18147;51.952;6.146;2023-06-19T00:58:26;11.55;;;8.02;;
31537;SDS011;18147;51.952;6.146;2023-06-19T01:00:52;10.07;;;8.40;;
31537;SDS011;18147;51.952;6.146;2023-06-19T01:03:18;16.48;;;8.80;;
31537;SDS011;18147;51.952;6.146;2023-06-19T01:05:44;12.00;;;8.13;;
31537;SDS011;18147;51.952;6.146;2023-06-19T01:08:33;9.57;;;7.78;;
31537;SDS011;18147;51.952;6.146;2023-06-19T01:11:10;12.45;;;9.00;;
31537;SDS011;18147;51.952;6.146;2023-06-19T01:16:12;10.98;;;8.35;;
31537;SDS011;18147;51.952;6.146;2023-06-19T01:18:41;11.73;;;9.20;;
31537;SDS011;18147;51.952;6.146;2023-06-19T01:21:17;9.50;;;8.52;;
31537;SDS011;18147;51.952;6.146;2023-06-19T01:23:44;10.88;;;8.75;;
31537;SDS011;18147;51.952;6.146;2023-06-19T01:26:11;12.73;;;9.02;;
31537;SDS011;18147;51.952;6.146;2023-06-19T01:28:38;12.02;;;9.00;;
31537;SDS011;18147;51.952;6.146;2023-06-19T01:31:30;14.10;;;9.00;;
31537;SDS011;18147;51.952;6.146;2023-06-19T01:33:58;13.00;;;8.70;;
31537;SDS011;18147;51.952;6.146;2023-06-19T01:36:26;13.13;;;8.70;;
31537;SDS011;18147;51.952;6.146;2023-06-19T01:38:53;10.48;;;8.25;;
31537;SDS011;18147;51.952;6.146;2023-06-19T01:41:22;11.98;;;8.98;;
31537;SDS011;18147;51.952;6.146;2023-06-19T01:43:49;10.65;;;8.48;;
31537;SDS011;18147;51.952;6.146;2023-06-19T01:46:17;12.13;;;8.88;;
31537;SDS011;18147;51.952;6.146;2023-06-19T01:48:43;12.13;;;8.35;;
31537;SDS011;18147;51.952;6.146;2023-06-19T01:51:09;15.27;;;8.65;;
31537;SDS011;18147;51.952;6.146;2023-06-19T01:53:41;12.30;;;9.30;;
31537;SDS011;18147;51.952;6.146;2023-06-19T01:56:06;13.65;;;9.55;;
31537;SDS011;18147;51.952;6.146;2023-06-19T01:58:33;9.48;;;8.48;;
31537;SDS011;18147;51.952;6.146;2023-06-19T02:00:59;16.10;;;8.40;;
31537;SDS011;18147;51.952;6.146;2023-06-19T02:03:25;13.35;;;9.07;;
31537;SDS011;18147;51.952;6.146;2023-06-19T02:05:51;14.80;;;8.70;;
31537;SDS011;18147;51.952;6.146;2023-06-19T02:08:19;11.02;;;8.75;;
31537;SDS011;18147;51.952;6.146;2023-06-19T02:10:44;12.40;;;9.25;;
31537;SDS011;18147;51.952;6.146;2023-06-19T02:13:10;10.38;;;8.60;;
31537;SDS011;18147;51.952;6.146;2023-06-19T02:15:36;12.45;;;9.02;;
31537;SDS011;18147;51.952;6.146;2023-06-19T02:18:02;11.52;;;9.07;;
31537;SDS011;18147;51.952;6.146;2023-06-19T02:20:27;13.13;;;9.40;;
31537;SDS011;18147;51.952;6.146;2023-06-19T02:22:55;14.93;;;9.30;;
31537;SDS011;18147;51.952;6.146;2023-06-19T02:25:21;10.10;;;8.02;;
31537;SDS011;18147;51.952;6.146;2023-06-19T02:27:46;11.18;;;7.93;;
31537;SDS011;18147;51.952;6.146;2023-06-19T02:30:12;11.52;;;8.75;;
31537;SDS011;18147;51.952;6.146;2023-06-19T02:32:40;8.98;;;7.10;;
31537;SDS011;18147;51.952;6.146;2023-06-19T02:35:08;11.50;;;7.43;;
31537;SDS011;18147;51.952;6.146;2023-06-19T02:37:36;9.80;;;7.18;;
31537;SDS011;18147;51.952;6.146;2023-06-19T02:40:03;11.55;;;6.30;;
31537;SDS011;18147;51.952;6.146;2023-06-19T02:42:33;12.50;;;6.63;;
31537;SDS011;18147;51.952;6.146;2023-06-19T02:45:00;7.53;;;5.50;;
31537;SDS011;18147;51.952;6.146;2023-06-19T02:47:31;8.98;;;5.80;;
31537;SDS011;18147;51.952;6.146;2023-06-19T02:49:58;9.63;;;6.25;;
31537;SDS011;18147;51.952;6.146;2023-06-19T02:52:24;14.02;;;5.72;;
31537;SDS011;18147;51.952;6.146;2023-06-19T02:54:49;9.20;;;6.22;;
31537;SDS011;18147;51.952;6.146;2023-06-19T02:57:15;10.77;;;6.15;;
31537;SDS011;18147;51.952;6.146;2023-06-19T02:59:42;7.60;;;5.97;;
31537;SDS011;18147;51.952;6.146;2023-06-19T03:02:07;9.50;;;5.65;;
31537;SDS011;18147;51.952;6.146;2023-06-19T03:04:36;6.90;;;5.47;;
31537;SDS011;18147;51.952;6.146;2023-06-19T03:07:03;9.93;;;5.70;;
31537;SDS011;18147;51.952;6.146;2023-06-19T03:09:29;7.88;;;6.05;;
31537;SDS011;18147;51.952;6.146;2023-06-19T03:11:55;9.90;;;5.30;;
31537;SDS011;18147;51.952;6.146;2023-06-19T03:14:21;7.95;;;5.68;;
31537;SDS011;18147;51.952;6.146;2023-06-19T03:16:46;6.38;;;5.30;;
31537;SDS011;18147;51.952;6.146;2023-06-19T03:19:12;7.15;;;5.28;;
31537;SDS011;18147;51.952;6.146;2023-06-19T03:21:38;8.57;;;5.63;;
31537;SDS011;18147;51.952;6.146;2023-06-19T03:24:07;7.13;;;5.20;;
31537;SDS011;18147;51.952;6.146;2023-06-19T03:26:34;7.10;;;4.72;;
31537;SDS011;18147;51.952;6.146;2023-06-19T03:29:01;6.95;;;5.15;;
31537;SDS011;18147;51.952;6.146;2023-06-19T03:31:35;5.55;;;4.68;;
31537;SDS011;18147;51.952;6.146;2023-06-19T03:34:02;6.22;;;5.18;;
31537;SDS011;18147;51.952;6.146;2023-06-19T03:36:28;5.95;;;4.78;;
31537;SDS011;18147;51.952;6.146;2023-06-19T03:38:54;7.25;;;5.22;;
31537;SDS011;18147;51.952;6.146;2023-06-19T03:41:24;8.07;;;4.90;;
31537;SDS011;18147;51.952;6.146;2023-06-19T03:43:50;5.82;;;4.95;;
31537;SDS011;18147;51.952;6.146;2023-06-19T03:46:17;5.22;;;4.40;;
31537;SDS011;18147;51.952;6.146;2023-06-19T03:48:42;4.88;;;4.00;;
31537;SDS011;18147;51.952;6.146;2023-06-19T03:51:08;6.38;;;4.13;;
31537;SDS011;18147;51.952;6.146;2023-06-19T03:53:37;6.60;;;4.38;;
31537;SDS011;18147;51.952;6.146;2023-06-19T03:56:06;4.85;;;3.75;;
31537;SDS011;18147;51.952;6.146;2023-06-19T03:58:32;5.05;;;4.10;;
31537;SDS011;18147;51.952;6.146;2023-06-19T04:00:57;5.93;;;4.30;;
31537;SDS011;18147;51.952;6.146;2023-06-19T04:03:23;4.72;;;3.70;;
31537;SDS011;18147;51.952;6.146;2023-06-19T04:05:48;5.32;;;4.40;;
31537;SDS011;18147;51.952;6.146;2023-06-19T04:08:15;7.68;;;4.45;;
31537;SDS011;18147;51.952;6.146;2023-06-19T04:10:43;8.85;;;4.40;;
31537;SDS011;18147;51.952;6.146;2023-06-19T04:13:10;5.25;;;3.83;;
31537;SDS011;18147;51.952;6.146;2023-06-19T04:15:35;7.07;;;4.43;;
31537;SDS011;18147;51.952;6.146;2023-06-19T04:18:02;5.38;;;4.05;;
31537;SDS011;18147;51.952;6.146;2023-06-19T04:20:29;5.93;;;4.32;;
31537;SDS011;18147;51.952;6.146;2023-06-19T04:22:54;5.57;;;4.30;;
31537;SDS011;18147;51.952;6.146;2023-06-19T04:25:20;8.68;;;4.05;;
31537;SDS011;18147;51.952;6.146;2023-06-19T04:27:45;6.22;;;4.30;;
31537;SDS011;18147;51.952;6.146;2023-06-19T04:30:11;11.75;;;4.13;;
31537;SDS011;18147;51.952;6.146;2023-06-19T04:32:37;5.22;;;3.85;;
31537;SDS011;18147;51.952;6.146;2023-06-19T04:35:07;4.75;;;3.90;;
31537;SDS011;18147;51.952;6.146;2023-06-19T04:37:36;6.75;;;4.07;;
31537;SDS011;18147;51.952;6.146;2023-06-19T04:40:01;5.55;;;4.55;;
31537;SDS011;18147;51.952;6.146;2023-06-19T04:42:28;7.65;;;4.35;;
31537;SDS011;18147;51.952;6.146;2023-06-19T04:44:54;5.45;;;4.40;;
31537;SDS011;18147;51.952;6.146;2023-06-19T04:47:22;5.55;;;4.15;;
31537;SDS011;18147;51.952;6.146;2023-06-19T04:49:48;8.65;;;4.80;;
31537;SDS011;18147;51.952;6.146;2023-06-19T04:52:14;7.22;;;3.95;;
31537;SDS011;18147;51.952;6.146;2023-06-19T04:54:40;4.78;;;3.83;;
31537;SDS011;18147;51.952;6.146;2023-06-19T04:57:06;6.63;;;4.20;;
31537;SDS011;18147;51.952;6.146;2023-06-19T04:59:32;5.40;;;4.43;;
31537;SDS011;18147;51.952;6.146;2023-06-19T05:01:58;7.32;;;4.78;;
31537;SDS011;18147;51.952;6.146;2023-06-19T05:04:24;7.65;;;5.32;;
31537;SDS011;18147;51.952;6.146;2023-06-19T05:06:57;8.57;;;5.05;;
31537;SDS011;18147;51.952;6.146;2023-06-19T05:09:23;9.05;;;5.22;;
31537;SDS011;18147;51.952;6.146;2023-06-19T05:11:51;7.45;;;5.45;;
31537;SDS011;18147;51.952;6.146;2023-06-19T05:14:16;8.25;;;5.25;;
31537;SDS011;18147;51.952;6.146;2023-06-19T05:16:42;9.13;;;5.50;;
31537;SDS011;18147;51.952;6.146;2023-06-19T05:19:11;10.30;;;5.88;;
31537;SDS011;18147;51.952;6.146;2023-06-19T05:21:37;9.73;;;5.70;;
31537;SDS011;18147;51.952;6.146;2023-06-19T05:24:02;9.18;;;5.82;;
31537;SDS011;18147;51.952;6.146;2023-06-19T05:26:28;7.07;;;5.38;;
31537;SDS011;18147;51.952;6.146;2023-06-19T05:28:53;8.75;;;5.28;;
31537;SDS011;18147;51.952;6.146;2023-06-19T05:31:19;11.93;;;6.15;;
31537;SDS011;18147;51.952;6.146;2023-06-19T05:33:44;11.57;;;6.18;;
31537;SDS011;18147;51.952;6.146;2023-06-19T05:36:10;8.95;;;6.18;;
31537;SDS011;18147;51.952;6.146;2023-06-19T05:38:38;8.00;;;6.40;;
31537;SDS011;18147;51.952;6.146;2023-06-19T05:41:04;8.48;;;5.97;;
31537;SDS011;18147;51.952;6.146;2023-06-19T05:43:32;8.80;;;5.95;;
31537;SDS011;18147;51.952;6.146;2023-06-19T05:45:57;14.25;;;6.25;;
31537;SDS011;18147;51.952;6.146;2023-06-19T05:48:25;9.43;;;6.53;;
31537;SDS011;18147;51.952;6.146;2023-06-19T05:50:51;9.10;;;7.07;;
31537;SDS011;18147;51.952;6.146;2023-06-19T05:53:17;9.98;;;6.97;;
31537;SDS011;18147;51.952;6.146;2023-06-19T05:55:42;11.95;;;7.60;;
31537;SDS011;18147;51.952;6.146;2023-06-19T05:58:08;11.63;;;7.72;;
31537;SDS011;18147;51.952;6.146;2023-06-19T06:00:35;9.40;;;6.57;;
31537;SDS011;18147;51.952;6.146;2023-06-19T06:03:00;13.55;;;8.25;;
31537;SDS011;18147;51.952;6.146;2023-06-19T06:05:27;12.10;;;8.20;;
31537;SDS011;18147;51.952;6.146;2023-06-19T06:07:53;13.68;;;8.50;;
31537;SDS011;18147;51.952;6.146;2023-06-19T06:10:23;9.57;;;8.45;;
31537;SDS011;18147;51.952;6.146;2023-06-19T06:12:50;15.10;;;8.77;;
31537;SDS011;18147;51.952;6.146;2023-06-19T06:15:16;16.42;;;10.95;;
31537;SDS011;18147;51.952;6.146;2023-06-19T06:17:42;12.63;;;9.65;;
31537;SDS011;18147;51.952;6.146;2023-06-19T06:20:08;12.73;;;10.57;;
31537;SDS011;18147;51.952;6.146;2023-06-19T06:22:39;12.93;;;9.40;;
31537;SDS011;18147;51.952;6.146;2023-06-19T06:25:07;14.77;;;9.07;;
31537;SDS011;18147;51.952;6.146;2023-06-19T06:27:35;13.60;;;9.02;;
31537;SDS011;18147;51.952;6.146;2023-06-19T06:30:01;14.80;;;10.02;;
31537;SDS011;18147;51.952;6.146;2023-06-19T06:32:27;14.30;;;10.32;;
31537;SDS011;18147;51.952;6.146;2023-06-19T06:34:54;14.57;;;10.20;;
31537;SDS011;18147;51.952;6.146;2023-06-19T06:37:20;12.57;;;9.57;;
31537;SDS011;18147;51.952;6.146;2023-06-19T06:39:50;13.38;;;9.40;;
31537;SDS011;18147;51.952;6.146;2023-06-19T06:42:17;15.15;;;8.98;;
31537;SDS011;18147;51.952;6.146;2023-06-19T06:44:43;17.58;;;10.25;;
31537;SDS011;18147;51.952;6.146;2023-06-19T06:47:09;13.25;;;8.63;;
31537;SDS011;18147;51.952;6.146;2023-06-19T06:49:35;14.23;;;9.32;;
31537;SDS011;18147;51.952;6.146;2023-06-19T06:52:02;11.55;;;9.30;;
31537;SDS011;18147;51.952;6.146;2023-06-19T06:54:30;15.63;;;10.55;;
31537;SDS011;18147;51.952;6.146;2023-06-19T06:56:56;14.35;;;9.10;;
31537;SDS011;18147;51.952;6.146;2023-06-19T06:59:23;14.05;;;10.13;;
31537;SDS011;18147;51.952;6.146;2023-06-19T07:01:50;12.00;;;9.13;;
31537;SDS011;18147;51.952;6.146;2023-06-19T07:04:15;15.40;;;9.20;;
31537;SDS011;18147;51.952;6.146;2023-06-19T07:06:41;17.33;;;9.98;;
31537;SDS011;18147;51.952;6.146;2023-06-19T07:09:07;12.10;;;10.07;;
31537;SDS011;18147;51.952;6.146;2023-06-19T07:11:33;13.80;;;10.38;;
31537;SDS011;18147;51.952;6.146;2023-06-19T07:13:58;12.65;;;9.57;;
31537;SDS011;18147;51.952;6.146;2023-06-19T07:16:24;12.10;;;9.80;;
31537;SDS011;18147;51.952;6.146;2023-06-19T07:18:49;11.50;;;10.10;;
31537;SDS011;18147;51.952;6.146;2023-06-19T07:21:15;14.43;;;9.57;;
31537;SDS011;18147;51.952;6.146;2023-06-19T07:23:41;11.90;;;9.38;;
31537;SDS011;18147;51.952;6.146;2023-06-19T07:26:09;13.82;;;9.82;;
31537;SDS011;18147;51.952;6.146;2023-06-19T07:28:35;14.68;;;9.52;;
31537;SDS011;18147;51.952;6.146;2023-06-19T07:31:02;13.60;;;9.60;;
31537;SDS011;18147;51.952;6.146;2023-06-19T07:33:28;14.98;;;9.27;;
31537;SDS011;18147;51.952;6.146;2023-06-19T07:35:54;15.10;;;9.18;;
31537;SDS011;18147;51.952;6.146;2023-06-19T07:38:20;9.10;;;8.15;;
31537;SDS011;18147;51.952;6.146;2023-06-19T07:40:46;10.65;;;8.10;;
31537;SDS011;18147;51.952;6.146;2023-06-19T07:43:12;13.80;;;8.52;;
31537;SDS011;18147;51.952;6.146;2023-06-19T07:45:37;9.43;;;7.88;;
31537;SDS011;18147;51.952;6.146;2023-06-19T07:48:04;9.38;;;7.93;;
31537;SDS011;18147;51.952;6.146;2023-06-19T07:50:29;10.40;;;8.80;;
31537;SDS011;18147;51.952;6.146;2023-06-19T07:52:55;9.80;;;8.80;;
31537;SDS011;18147;51.952;6.146;2023-06-19T07:55:21;11.18;;;9.35;;
31537;SDS011;18147;51.952;6.146;2023-06-19T07:57:46;13.55;;;9.65;;
31537;SDS011;18147;51.952;6.146;2023-06-19T08:00:12;11.50;;;9.00;;
31537;SDS011;18147;51.952;6.146;2023-06-19T08:02:41;12.70;;;9.38;;
31537;SDS011;18147;51.952;6.146;2023-06-19T08:05:07;10.30;;;8.52;;
31537;SDS011;18147;51.952;6.146;2023-06-19T08:07:34;13.45;;;9.43;;
31537;SDS011;18147;51.952;6.146;2023-06-19T08:10:00;9.63;;;8.73;;
31537;SDS011;18147;51.952;6.146;2023-06-19T08:12:29;13.45;;;11.13;;
31537;SDS011;18147;51.952;6.146;2023-06-19T08:14:55;16.45;;;12.82;;
31537;SDS011;18147;51.952;6.146;2023-06-19T08:17:20;15.52;;;13.25;;
31537;SDS011;18147;51.952;6.146;2023-06-19T08:19:46;15.55;;;13.90;;
31537;SDS011;18147;51.952;6.146;2023-06-19T08:22:12;17.55;;;14.15;;
31537;SDS011;18147;51.952;6.146;2023-06-19T08:24:37;17.13;;;13.23;;
31537;SDS011;18147;51.952;6.146;2023-06-19T08:27:06;18.73;;;13.65;;
31537;SDS011;18147;51.952;6.146;2023-06-19T08:29:32;18.42;;;13.10;;
31537;SDS011;18147;51.952;6.146;2023-06-19T08:31:58;14.73;;;12.95;;
31537;SDS011;18147;51.952;6.146;2023-06-19T08:34:24;15.90;;;13.13;;
31537;SDS011;18147;51.952;6.146;2023-06-19T08:36:49;18.77;;;12.93;;
31537;SDS011;18147;51.952;6.146;2023-06-19T08:39:15;14.82;;;12.68;;
31537;SDS011;18147;51.952;6.146;2023-06-19T08:41:41;16.48;;;12.75;;
31537;SDS011;18147;51.952;6.146;2023-06-19T08:44:07;13.40;;;11.25;;
31537;SDS011;18147;51.952;6.146;2023-06-19T08:46:34;20.05;;;11.93;;
31537;SDS011;18147;51.952;6.146;2023-06-19T08:49:02;14.30;;;11.30;;
31537;SDS011;18147;51.952;6.146;2023-06-19T08:51:27;16.40;;;14.20;;
31537;SDS011;18147;51.952;6.146;2023-06-19T08:53:56;16.35;;;12.85;;
31537;SDS011;18147;51.952;6.146;2023-06-19T08:56:26;19.88;;;14.48;;
31537;SDS011;18147;51.952;6.146;2023-06-19T08:58:53;16.45;;;14.07;;
31537;SDS011;18147;51.952;6.146;2023-06-19T09:01:19;19.55;;;13.50;;
31537;SDS011;18147;51.952;6.146;2023-06-19T09:03:45;19.65;;;14.00;;
31537;SDS011;18147;51.952;6.146;2023-06-19T09:06:14;16.27;;;13.40;;
31537;SDS011;18147;51.952;6.146;2023-06-19T09:08:41;18.88;;;13.65;;
31537;SDS011;18147;51.952;6.146;2023-06-19T09:11:07;16.00;;;14.23;;
31537;SDS011;18147;51.952;6.146;2023-06-19T09:13:32;16.27;;;13.90;;
31537;SDS011;18147;51.952;6.146;2023-06-19T09:16:00;20.20;;;12.85;;
31537;SDS011;18147;51.952;6.146;2023-06-19T09:18:43;18.50;;;14.02;;
31537;SDS011;18147;51.952;6.146;2023-06-19T09:21:18;15.57;;;13.10;;
31537;SDS011;18147;51.952;6.146;2023-06-19T09:23:47;14.73;;;13.02;;
31537;SDS011;18147;51.952;6.146;2023-06-19T09:26:14;17.15;;;14.20;;
31537;SDS011;18147;51.952;6.146;2023-06-19T09:28:41;24.27;;;14.10;;
31537;SDS011;18147;51.952;6.146;2023-06-19T09:31:10;21.92;;;15.18;;
31537;SDS011;18147;51.952;6.146;2023-06-19T09:33:37;19.10;;;15.25;;
31537;SDS011;18147;51.952;6.146;2023-06-19T09:36:06;17.10;;;14.75;;
31537;SDS011;18147;51.952;6.146;2023-06-19T09:38:33;18.10;;;12.77;;
31537;SDS011;18147;51.952;6.146;2023-06-19T09:41:03;17.55;;;15.20;;
31537;SDS011;18147;51.952;6.146;2023-06-19T09:43:32;17.45;;;14.90;;
31537;SDS011;18147;51.952;6.146;2023-06-19T09:46:10;16.38;;;13.93;;
31537;SDS011;18147;51.952;6.146;2023-06-19T09:48:40;16.00;;;14.18;;
31537;SDS011;18147;51.952;6.146;2023-06-19T09:53:51;15.65;;;13.88;;
31537;SDS011;18147;51.952;6.146;2023-06-19T09:56:17;20.30;;;15.88;;
31537;SDS011;18147;51.952;6.146;2023-06-19T09:58:46;19.83;;;14.35;;
31537;SDS011;18147;51.952;6.146;2023-06-19T10:01:14;19.20;;;14.05;;
31537;SDS011;18147;51.952;6.146;2023-06-19T10:03:43;17.35;;;15.35;;
31537;SDS011;18147;51.952;6.146;2023-06-19T10:06:12;19.27;;;14.57;;
31537;SDS011;18147;51.952;6.146;2023-06-19T10:08:43;18.70;;;16.65;;
31537;SDS011;18147;51.952;6.146;2023-06-19T10:11:10;17.25;;;14.88;;
31537;SDS011;18147;51.952;6.146;2023-06-19T10:13:37;18.55;;;15.85;;
31537;SDS011;18147;51.952;6.146;2023-06-19T10:16:06;17.15;;;15.38;;
31537;SDS011;18147;51.952;6.146;2023-06-19T10:18:32;18.30;;;16.17;;
31537;SDS011;18147;51.952;6.146;2023-06-19T10:21:15;21.05;;;16.95;;
31537;SDS011;18147;51.952;6.146;2023-06-19T10:24:03;21.02;;;17.77;;
31537;SDS011;18147;51.952;6.146;2023-06-19T10:26:29;23.55;;;18.17;;
31537;SDS011;18147;51.952;6.146;2023-06-19T10:28:56;19.88;;;17.80;;
31537;SDS011;18147;51.952;6.146;2023-06-19T10:31:21;20.52;;;17.73;;
31537;SDS011;18147;51.952;6.146;2023-06-19T10:33:47;21.05;;;18.42;;
31537;SDS011;18147;51.952;6.146;2023-06-19T10:36:14;20.60;;;16.77;;
31537;SDS011;18147;51.952;6.146;2023-06-19T10:38:41;18.98;;;15.98;;
31537;SDS011;18147;51.952;6.146;2023-06-19T10:41:22;19.23;;;16.63;;
31537;SDS011;18147;51.952;6.146;2023-06-19T10:43:56;23.13;;;19.35;;
31537;SDS011;18147;51.952;6.146;2023-06-19T10:46:24;22.75;;;18.55;;
31537;SDS011;18147;51.952;6.146;2023-06-19T10:48:54;20.40;;;16.63;;
31537;SDS011;18147;51.952;6.146;2023-06-19T10:51:24;22.25;;;17.25;;
31537;SDS011;18147;51.952;6.146;2023-06-19T10:53:50;24.00;;;19.83;;
31537;SDS011;18147;51.952;6.146;2023-06-19T10:56:18;21.00;;;16.25;;
31537;SDS011;18147;51.952;6.146;2023-06-19T10:58:46;18.40;;;16.50;;
31537;SDS011;18147;51.952;6.146;2023-06-19T11:01:11;20.38;;;17.80;;
31537;SDS011;18147;51.952;6.146;2023-06-19T11:03:37;19.90;;;16.88;;
31537;SDS011;18147;51.952;6.146;2023-06-19T11:06:02;19.70;;;17.27;;
31537;SDS011;18147;51.952;6.146;2023-06-19T11:08:28;19.38;;;15.68;;
31537;SDS011;18147;51.952;6.146;2023-06-19T11:10:54;17.80;;;15.27;;
31537;SDS011;18147;51.952;6.146;2023-06-19T11:13:20;20.65;;;16.55;;
31537;SDS011;18147;51.952;6.146;2023-06-19T11:15:47;18.50;;;16.52;;
31537;SDS011;18147;51.952;6.146;2023-06-19T11:18:15;21.45;;;17.10;;
31537;SDS011;18147;51.952;6.146;2023-06-19T11:20:52;20.67;;;18.48;;
31537;SDS011;18147;51.952;6.146;2023-06-19T11:23:28;21.33;;;18.33;;
31537;SDS011;18147;51.952;6.146;2023-06-19T11:26:01;21.90;;;19.60;;
31537;SDS011;18147;51.952;6.146;2023-06-19T11:28:28;23.05;;;19.08;;
31537;SDS011;18147;51.952;6.146;2023-06-19T11:30:58;21.48;;;18.00;;
31537;SDS011;18147;51.952;6.146;2023-06-19T11:33:27;26.27;;;20.80;;
31537;SDS011;18147;51.952;6.146;2023-06-19T11:35:53;26.65;;;21.77;;
31537;SDS011;18147;51.952;6.146;2023-06-19T11:38:23;22.45;;;20.02;;
31537;SDS011;18147;51.952;6.146;2023-06-19T11:40:51;23.50;;;20.95;;
31537;SDS011;18147;51.952;6.146;2023-06-19T11:43:24;27.55;;;22.90;;
31537;SDS011;18147;51.952;6.146;2023-06-19T11:45:52;26.63;;;19.38;;
31537;SDS011;18147;51.952;6.146;2023-06-19T11:48:25;19.63;;;17.38;;
31537;SDS011;18147;51.952;6.146;2023-06-19T11:50:51;21.45;;;19.15;;
31537;SDS011;18147;51.952;6.146;2023-06-19T11:53:21;21.73;;;17.05;;
31537;SDS011;18147;51.952;6.146;2023-06-19T11:55:48;24.17;;;21.25;;
31537;SDS011;18147;51.952;6.146;2023-06-19T11:58:14;25.40;;;22.70;;
31537;SDS011;18147;51.952;6.146;2023-06-19T12:03:12;27.17;;;21.60;;
31537;SDS011;18147;51.952;6.146;2023-06-19T12:05:37;22.48;;;20.13;;
31537;SDS011;18147;51.952;6.146;2023-06-19T12:08:05;22.50;;;20.02;;
31537;SDS011;18147;51.952;6.146;2023-06-19T12:10:33;21.60;;;18.98;;
31537;SDS011;18147;51.952;6.146;2023-06-19T12:13:00;25.83;;;23.13;;
31537;SDS011;18147;51.952;6.146;2023-06-19T12:15:25;24.77;;;18.88;;
31537;SDS011;18147;51.952;6.146;2023-06-19T12:17:51;23.20;;;18.88;;
31537;SDS011;18147;51.952;6.146;2023-06-19T12:20:17;29.38;;;22.08;;
31537;SDS011;18147;51.952;6.146;2023-06-19T12:22:44;22.65;;;20.25;;
31537;SDS011;18147;51.952;6.146;2023-06-19T12:25:09;23.77;;;21.15;;
31537;SDS011;18147;51.952;6.146;2023-06-19T12:27:36;24.05;;;21.00;;
31537;SDS011;18147;51.952;6.146;2023-06-19T12:30:02;26.27;;;20.70;;
31537;SDS011;18147;51.952;6.146;2023-06-19T12:32:28;25.40;;;22.40;;
31537;SDS011;18147;51.952;6.146;2023-06-19T12:34:54;23.60;;;18.60;;
31537;SDS011;18147;51.952;6.146;2023-06-19T12:37:22;26.40;;;21.17;;
31537;SDS011;18147;51.952;6.146;2023-06-19T12:39:49;23.38;;;20.77;;
31537;SDS011;18147;51.952;6.146;2023-06-19T12:42:16;21.63;;;19.27;;
31537;SDS011;18147;51.952;6.146;2023-06-19T12:44:42;20.02;;;17.58;;
31537;SDS011;18147;51.952;6.146;2023-06-19T12:47:11;26.98;;;20.92;;
31537;SDS011;18147;51.952;6.146;2023-06-19T12:49:37;23.63;;;20.90;;
31537;SDS011;18147;51.952;6.146;2023-06-19T12:52:04;23.90;;;21.00;;
31537;SDS011;18147;51.952;6.146;2023-06-19T12:54:29;29.15;;;19.80;;
31537;SDS011;18147;51.952;6.146;2023-06-19T12:56:55;25.42;;;21.17;;
31537;SDS011;18147;51.952;6.146;2023-06-19T12:59:21;19.05;;;16.83;;
31537;SDS011;18147;51.952;6.146;2023-06-19T13:01:47;20.48;;;16.23;;
31537;SDS011;18147;51.952;6.146;2023-06-19T13:04:12;19.33;;;17.17;;
31537;SDS011;18147;51.952;6.146;2023-06-19T13:06:38;17.05;;;15.13;;
31537;SDS011;18147;51.952;6.146;2023-06-19T13:09:07;20.48;;;18.10;;
31537;SDS011;18147;51.952;6.146;2023-06-19T13:11:36;22.85;;;19.75;;
31537;SDS011;18147;51.952;6.146;2023-06-19T13:14:01;25.20;;;19.05;;
31537;SDS011;18147;51.952;6.146;2023-06-19T13:16:27;21.85;;;18.90;;
31537;SDS011;18147;51.952;6.146;2023-06-19T13:18:52;25.63;;;19.67;;
31537;SDS011;18147;51.952;6.146;2023-06-19T13:21:18;21.90;;;16.92;;
31537;SDS011;18147;51.952;6.146;2023-06-19T13:23:44;18.95;;;14.65;;
31537;SDS011;18147;51.952;6.146;2023-06-19T13:26:10;26.00;;;16.73;;
31537;SDS011;18147;51.952;6.146;2023-06-19T13:28:40;25.58;;;18.33;;
31537;SDS011;18147;51.952;6.146;2023-06-19T13:31:09;22.83;;;18.73;;
31537;SDS011;18147;51.952;6.146;2023-06-19T13:33:35;19.13;;;15.60;;
31537;SDS011;18147;51.952;6.146;2023-06-19T13:36:00;18.42;;;16.58;;
31537;SDS011;18147;51.952;6.146;2023-06-19T13:38:26;18.50;;;15.82;;
31537;SDS011;18147;51.952;6.146;2023-06-19T13:40:52;20.85;;;15.32;;
31537;SDS011;18147;51.952;6.146;2023-06-19T13:43:17;20.33;;;14.45;;
31537;SDS011;18147;51.952;6.146;2023-06-19T13:45:44;16.48;;;13.98;;
31537;SDS011;18147;51.952;6.146;2023-06-19T13:48:10;14.82;;;12.38;;
31537;SDS011;18147;51.952;6.146;2023-06-19T13:50:36;18.30;;;14.57;;
31537;SDS011;18147;51.952;6.146;2023-06-19T13:53:08;19.92;;;12.93;;
31537;SDS011;18147;51.952;6.146;2023-06-19T13:55:34;17.58;;;13.38;;
31537;SDS011;18147;51.952;6.146;2023-06-19T13:58:00;17.65;;;14.27;;
31537;SDS011;18147;51.952;6.146;2023-06-19T14:00:26;17.17;;;13.05;;
31537;SDS011;18147;51.952;6.146;2023-06-19T14:02:52;16.05;;;12.27;;
31537;SDS011;18147;51.952;6.146;2023-06-19T14:05:18;14.93;;;11.55;;
31537;SDS011;18147;51.952;6.146;2023-06-19T14:07:43;14.10;;;11.15;;
31537;SDS011;18147;51.952;6.146;2023-06-19T14:10:10;15.30;;;13.70;;
31537;SDS011;18147;51.952;6.146;2023-06-19T14:12:35;20.15;;;12.65;;
31537;SDS011;18147;51.952;6.146;2023-06-19T14:15:01;17.40;;;13.60;;
31537;SDS011;18147;51.952;6.146;2023-06-19T14:17:26;19.52;;;14.57;;
31537;SDS011;18147;51.952;6.146;2023-06-19T14:19:52;16.98;;;14.07;;
31537;SDS011;18147;51.952;6.146;2023-06-19T14:22:18;16.65;;;10.57;;
31537;SDS011;18147;51.952;6.146;2023-06-19T14:24:44;15.48;;;12.05;;
31537;SDS011;18147;51.952;6.146;2023-06-19T14:27:10;14.02;;;10.40;;
31537;SDS011;18147;51.952;6.146;2023-06-19T14:29:35;15.63;;;11.55;;
31537;SDS011;18147;51.952;6.146;2023-06-19T14:32:01;17.00;;;13.07;;
31537;SDS011;18147;51.952;6.146;2023-06-19T14:34:28;18.98;;;12.95;;
31537;SDS011;18147;51.952;6.146;2023-06-19T14:36:54;17.52;;;11.85;;
31537;SDS011;18147;51.952;6.146;2023-06-19T14:39:20;16.33;;;12.77;;